Terminal Aerodrome Forecast
Issued by NWS

Home | Current Version | Previous Version | Text Only | Print | Product List | Glossary Off
Versions: 1 2 3 4 5 6 7 8 9 10 11 12 13

000
FTUS43 KIWX 302300
TAFSBN
TAF
KSBN 302338Z 3100/3124 35009KT 5SM -SHRA BR BKN004 OVC040
     FM310200 02014G21KT 3SM RA BR VCTS BKN005CB OVC020
     FM311200 04016G24KT 5SM -SHRA OVC015
     FM311600 04018G25KT P6SM OVC025=

USA.gov is the U.S. government's official web portal to all federal, state and local government web resources and services.